sensor_id;sensor_type;location;lat;lon;timestamp;temperature;humidity
22795;DHT22;11564;50.920;11.612;2023-06-19T00:00:09;15.40;99.90
22795;DHT22;11564;50.920;11.612;2023-06-19T00:02:42;15.40;99.90
22795;DHT22;11564;50.920;11.612;2023-06-19T00:05:08;15.40;99.90
22795;DHT22;11564;50.920;11.612;2023-06-19T00:07:36;15.40;99.90
22795;DHT22;11564;50.920;11.612;2023-06-19T00:10:02;15.40;99.90
22795;DHT22;11564;50.920;11.612;2023-06-19T00:12:28;15.40;99.90
22795;DHT22;11564;50.920;11.612;2023-06-19T00:14:53;15.40;99.90
22795;DHT22;11564;50.920;11.612;2023-06-19T00:17:19;15.40;99.90
22795;DHT22;11564;50.920;11.612;2023-06-19T00:19:44;15.40;99.90
22795;DHT22;11564;50.920;11.612;2023-06-19T00:22:10;15.40;99.90
22795;DHT22;11564;50.920;11.612;2023-06-19T00:24:36;15.50;99.90
22795;DHT22;11564;50.920;11.612;2023-06-19T00:27:02;15.50;99.90
22795;DHT22;11564;50.920;11.612;2023-06-19T00:29:29;15.50;99.90
22795;DHT22;11564;50.920;11.612;2023-06-19T00:31:55;15.60;99.90
22795;DHT22;11564;50.920;11.612;2023-06-19T00:34:20;15.60;99.90
22795;DHT22;11564;50.920;11.612;2023-06-19T00:36:50;15.60;99.90
22795;DHT22;11564;50.920;11.612;2023-06-19T00:39:15;15.60;99.90
22795;DHT22;11564;50.920;11.612;2023-06-19T00:41:43;15.70;99.90
22795;DHT22;11564;50.920;11.612;2023-06-19T00:44:10;15.70;99.90
22795;DHT22;11564;50.920;11.612;2023-06-19T00:46:37;15.70;99.90
22795;DHT22;11564;50.920;11.612;2023-06-19T00:49:05;15.70;99.90
22795;DHT22;11564;50.920;11.612;2023-06-19T00:51:31;15.80;99.90
22795;DHT22;11564;50.920;11.612;2023-06-19T00:53:57;15.80;99.90
22795;DHT22;11564;50.920;11.612;2023-06-19T00:56:23;15.80;99.90
22795;DHT22;11564;50.920;11.612;2023-06-19T00:58:48;15.80;99.90
22795;DHT22;11564;50.920;11.612;2023-06-19T01:01:14;15.80;99.90
22795;DHT22;11564;50.920;11.612;2023-06-19T01:03:40;15.80;99.90
22795;DHT22;11564;50.920;11.612;2023-06-19T01:06:13;15.90;99.90
22795;DHT22;11564;50.920;11.612;2023-06-19T01:11:15;15.90;99.90
22795;DHT22;11564;50.920;11.612;2023-06-19T01:13:45;15.90;99.90
22795;DHT22;11564;50.920;11.612;2023-06-19T01:16:13;15.90;99.90
22795;DHT22;11564;50.920;11.612;2023-06-19T01:18:39;15.90;99.90
22795;DHT22;11564;50.920;11.612;2023-06-19T01:21:13;15.80;99.90
22795;DHT22;11564;50.920;11.612;2023-06-19T01:23:39;15.90;99.90
22795;DHT22;11564;50.920;11.612;2023-06-19T01:26:06;15.90;99.90
22795;DHT22;11564;50.920;11.612;2023-06-19T01:28:33;15.90;99.90
22795;DHT22;11564;50.920;11.612;2023-06-19T01:31:00;15.90;99.90
22795;DHT22;11564;50.920;11.612;2023-06-19T01:33:28;15.90;99.90
22795;DHT22;11564;50.920;11.612;2023-06-19T01:35:57;15.90;99.90
22795;DHT22;11564;50.920;11.612;2023-06-19T01:38:25;15.90;99.90
22795;DHT22;11564;50.920;11.612;2023-06-19T01:40:53;16.00;99.90
22795;DHT22;11564;50.920;11.612;2023-06-19T01:43:20;16.00;99.90
22795;DHT22;11564;50.920;11.612;2023-06-19T01:45:46;16.10;99.90
22795;DHT22;11564;50.920;11.612;2023-06-19T01:48:13;16.00;99.90
22795;DHT22;11564;50.920;11.612;2023-06-19T01:50:39;16.10;99.90
22795;DHT22;11564;50.920;11.612;2023-06-19T01:53:05;16.10;99.90
22795;DHT22;11564;50.920;11.612;2023-06-19T01:55:31;16.10;99.90
22795;DHT22;11564;50.920;11.612;2023-06-19T01:57:57;16.10;99.90
22795;DHT22;11564;50.920;11.612;2023-06-19T02:00:23;16.10;99.90
22795;DHT22;11564;50.920;11.612;2023-06-19T02:02:49;16.10;99.90
22795;DHT22;11564;50.920;11.612;2023-06-19T02:05:14;16.10;99.90
22795;DHT22;11564;50.920;11.612;2023-06-19T02:07:40;16.10;99.90
22795;DHT22;11564;50.920;11.612;2023-06-19T02:10:06;16.20;99.90
22795;DHT22;11564;50.920;11.612;2023-06-19T02:12:33;16.20;99.90
22795;DHT22;11564;50.920;11.612;2023-06-19T02:14:59;16.10;99.90
22795;DHT22;11564;50.920;11.612;2023-06-19T02:17:25;16.20;99.90
22795;DHT22;11564;50.920;11.612;2023-06-19T02:19:50;16.20;99.90
22795;DHT22;11564;50.920;11.612;2023-06-19T02:22:17;16.20;99.90
22795;DHT22;11564;50.920;11.612;2023-06-19T02:24:43;16.20;99.90
22795;DHT22;11564;50.920;11.612;2023-06-19T02:27:10;16.20;99.90
22795;DHT22;11564;50.920;11.612;2023-06-19T02:29:35;16.20;99.90
22795;DHT22;11564;50.920;11.612;2023-06-19T02:32:02;16.20;99.90
22795;DHT22;11564;50.920;11.612;2023-06-19T02:34:28;16.20;99.90
22795;DHT22;11564;50.920;11.612;2023-06-19T02:36:53;16.20;99.90
22795;DHT22;11564;50.920;11.612;2023-06-19T02:39:20;16.30;99.90
22795;DHT22;11564;50.920;11.612;2023-06-19T02:41:46;16.30;99.90
22795;DHT22;11564;50.920;11.612;2023-06-19T02:44:12;16.30;99.90
22795;DHT22;11564;50.920;11.612;2023-06-19T02:46:38;16.30;99.90
22795;DHT22;11564;50.920;11.612;2023-06-19T02:49:04;16.40;99.90
22795;DHT22;11564;50.920;11.612;2023-06-19T02:51:29;16.40;99.90
22795;DHT22;11564;50.920;11.612;2023-06-19T02:53:55;16.40;99.90
22795;DHT22;11564;50.920;11.612;2023-06-19T02:56:22;16.40;99.90
22795;DHT22;11564;50.920;11.612;2023-06-19T02:58:48;16.40;99.90
22795;DHT22;11564;50.920;11.612;2023-06-19T03:01:14;16.50;99.90
22795;DHT22;11564;50.920;11.612;2023-06-19T03:03:39;16.50;99.90
22795;DHT22;11564;50.920;11.612;2023-06-19T03:06:07;16.50;99.90
22795;DHT22;11564;50.920;11.612;2023-06-19T03:08:36;16.50;99.90
22795;DHT22;11564;50.920;11.612;2023-06-19T03:11:03;16.50;99.90
22795;DHT22;11564;50.920;11.612;2023-06-19T03:13:43;16.40;99.90
22795;DHT22;11564;50.920;11.612;2023-06-19T03:16:09;16.50;99.90
22795;DHT22;11564;50.920;11.612;2023-06-19T03:18:34;16.50;99.90
22795;DHT22;11564;50.920;11.612;2023-06-19T03:21:00;16.60;99.90
22795;DHT22;11564;50.920;11.612;2023-06-19T03:23:26;16.60;99.90
22795;DHT22;11564;50.920;11.612;2023-06-19T03:25:51;16.60;99.90
22795;DHT22;11564;50.920;11.612;2023-06-19T03:28:17;16.60;99.90
22795;DHT22;11564;50.920;11.612;2023-06-19T03:30:42;16.60;99.90
22795;DHT22;11564;50.920;11.612;2023-06-19T03:33:08;16.70;99.90
22795;DHT22;11564;50.920;11.612;2023-06-19T03:35:33;16.70;99.90
22795;DHT22;11564;50.920;11.612;2023-06-19T03:37:59;16.70;99.90
22795;DHT22;11564;50.920;11.612;2023-06-19T03:40:25;16.70;99.90
22795;DHT22;11564;50.920;11.612;2023-06-19T03:42:50;16.70;99.90
22795;DHT22;11564;50.920;11.612;2023-06-19T03:45:16;16.80;99.90
22795;DHT22;11564;50.920;11.612;2023-06-19T03:47:41;16.80;99.90
22795;DHT22;11564;50.920;11.612;2023-06-19T03:50:07;16.70;99.90
22795;DHT22;11564;50.920;11.612;2023-06-19T03:52:36;16.70;99.90
22795;DHT22;11564;50.920;11.612;2023-06-19T03:55:03;16.60;99.90
22795;DHT22;11564;50.920;11.612;2023-06-19T03:57:28;16.70;99.90
22795;DHT22;11564;50.920;11.612;2023-06-19T03:59:54;16.80;99.90
22795;DHT22;11564;50.920;11.612;2023-06-19T04:02:20;16.80;99.90
22795;DHT22;11564;50.920;11.612;2023-06-19T04:04:45;16.80;99.90
22795;DHT22;11564;50.920;11.612;2023-06-19T04:07:11;16.80;99.90
22795;DHT22;11564;50.920;11.612;2023-06-19T04:09:37;16.70;99.90
22795;DHT22;11564;50.920;11.612;2023-06-19T04:12:02;16.90;99.90
22795;DHT22;11564;50.920;11.612;2023-06-19T04:14:28;16.90;99.90
22795;DHT22;11564;50.920;11.612;2023-06-19T04:16:54;17.00;99.90
22795;DHT22;11564;50.920;11.612;2023-06-19T04:19:19;17.00;99.90
22795;DHT22;11564;50.920;11.612;2023-06-19T04:21:45;17.00;99.90
22795;DHT22;11564;50.920;11.612;2023-06-19T04:24:10;17.10;99.90
22795;DHT22;11564;50.920;11.612;2023-06-19T04:26:36;17.10;99.90
22795;DHT22;11564;50.920;11.612;2023-06-19T04:29:02;17.10;99.90
22795;DHT22;11564;50.920;11.612;2023-06-19T04:31:28;17.20;99.90
22795;DHT22;11564;50.920;11.612;2023-06-19T04:33:55;17.10;99.90
22795;DHT22;11564;50.920;11.612;2023-06-19T04:36:22;17.20;99.90
22795;DHT22;11564;50.920;11.612;2023-06-19T04:38:48;17.20;99.90
22795;DHT22;11564;50.920;11.612;2023-06-19T04:41:17;17.20;99.90
22795;DHT22;11564;50.920;11.612;2023-06-19T04:43:42;17.20;99.90
22795;DHT22;11564;50.920;11.612;2023-06-19T04:46:08;17.30;99.90
22795;DHT22;11564;50.920;11.612;2023-06-19T04:48:33;17.30;99.90
22795;DHT22;11564;50.920;11.612;2023-06-19T04:51:02;17.30;99.90
22795;DHT22;11564;50.920;11.612;2023-06-19T04:53:28;17.20;99.90
22795;DHT22;11564;50.920;11.612;2023-06-19T04:55:54;17.30;99.90
22795;DHT22;11564;50.920;11.612;2023-06-19T04:58:23;17.30;99.90
22795;DHT22;11564;50.920;11.612;2023-06-19T05:00:48;17.30;99.90
22795;DHT22;11564;50.920;11.612;2023-06-19T05:03:17;17.30;99.90
22795;DHT22;11564;50.920;11.612;2023-06-19T05:05:43;17.40;99.90
22795;DHT22;11564;50.920;11.612;2023-06-19T05:08:09;17.60;99.90
22795;DHT22;11564;50.920;11.612;2023-06-19T05:10:35;17.60;99.90
22795;DHT22;11564;50.920;11.612;2023-06-19T05:13:01;17.60;99.90
22795;DHT22;11564;50.920;11.612;2023-06-19T05:15:27;17.60;99.90
22795;DHT22;11564;50.920;11.612;2023-06-19T05:17:53;17.60;99.90
22795;DHT22;11564;50.920;11.612;2023-06-19T05:20:19;17.60;99.90
22795;DHT22;11564;50.920;11.612;2023-06-19T05:22:45;17.80;99.90
22795;DHT22;11564;50.920;11.612;2023-06-19T05:25:10;17.80;99.90
22795;DHT22;11564;50.920;11.612;2023-06-19T05:27:36;17.90;99.90
22795;DHT22;11564;50.920;11.612;2023-06-19T05:30:02;18.00;99.90
22795;DHT22;11564;50.920;11.612;2023-06-19T05:32:29;18.00;99.90
22795;DHT22;11564;50.920;11.612;2023-06-19T05:34:55;18.00;99.90
22795;DHT22;11564;50.920;11.612;2023-06-19T05:37:20;18.00;99.90
22795;DHT22;11564;50.920;11.612;2023-06-19T05:39:48;17.90;99.90
22795;DHT22;11564;50.920;11.612;2023-06-19T05:42:14;17.80;99.90
22795;DHT22;11564;50.920;11.612;2023-06-19T05:44:39;17.80;99.90
22795;DHT22;11564;50.920;11.612;2023-06-19T05:47:06;17.90;99.90
22795;DHT22;11564;50.920;11.612;2023-06-19T05:49:31;17.90;99.90
22795;DHT22;11564;50.920;11.612;2023-06-19T05:51:57;18.00;99.90
22795;DHT22;11564;50.920;11.612;2023-06-19T05:54:25;18.10;99.90
22795;DHT22;11564;50.920;11.612;2023-06-19T05:56:52;18.20;99.90
22795;DHT22;11564;50.920;11.612;2023-06-19T05:59:18;18.10;99.90
22795;DHT22;11564;50.920;11.612;2023-06-19T06:01:43;18.10;99.90
22795;DHT22;11564;50.920;11.612;2023-06-19T06:04:09;18.30;99.90
22795;DHT22;11564;50.920;11.612;2023-06-19T06:06:35;18.40;99.90
22795;DHT22;11564;50.920;11.612;2023-06-19T06:09:00;18.50;99.90
22795;DHT22;11564;50.920;11.612;2023-06-19T06:11:26;18.50;99.90
22795;DHT22;11564;50.920;11.612;2023-06-19T06:13:51;18.60;99.90
22795;DHT22;11564;50.920;11.612;2023-06-19T06:16:17;18.80;99.90
22795;DHT22;11564;50.920;11.612;2023-06-19T06:18:45;18.80;99.90
22795;DHT22;11564;50.920;11.612;2023-06-19T06:21:11;18.90;99.90
22795;DHT22;11564;50.920;11.612;2023-06-19T06:23:40;18.80;99.90
22795;DHT22;11564;50.920;11.612;2023-06-19T06:26:05;19.10;99.90
22795;DHT22;11564;50.920;11.612;2023-06-19T06:28:31;19.10;99.90
22795;DHT22;11564;50.920;11.612;2023-06-19T06:30:57;19.00;99.90
22795;DHT22;11564;50.920;11.612;2023-06-19T06:33:23;19.00;99.90
22795;DHT22;11564;50.920;11.612;2023-06-19T06:35:48;18.90;99.90
22795;DHT22;11564;50.920;11.612;2023-06-19T06:38:14;19.00;99.90
22795;DHT22;11564;50.920;11.612;2023-06-19T06:40:40;19.20;99.90
22795;DHT22;11564;50.920;11.612;2023-06-19T06:43:07;19.40;99.90
22795;DHT22;11564;50.920;11.612;2023-06-19T06:45:32;19.50;99.90
22795;DHT22;11564;50.920;11.612;2023-06-19T06:47:58;19.70;99.90
22795;DHT22;11564;50.920;11.612;2023-06-19T06:50:23;19.60;99.90
22795;DHT22;11564;50.920;11.612;2023-06-19T06:52:49;19.60;99.90
22795;DHT22;11564;50.920;11.612;2023-06-19T06:55:15;19.40;99.90
22795;DHT22;11564;50.920;11.612;2023-06-19T06:57:40;19.60;99.90
22795;DHT22;11564;50.920;11.612;2023-06-19T07:00:06;20.00;99.90
22795;DHT22;11564;50.920;11.612;2023-06-19T07:02:35;20.10;99.90
22795;DHT22;11564;50.920;11.612;2023-06-19T07:05:00;20.50;99.90
22795;DHT22;11564;50.920;11.612;2023-06-19T07:07:26;20.90;99.90
22795;DHT22;11564;50.920;11.612;2023-06-19T07:09:51;21.20;99.90
22795;DHT22;11564;50.920;11.612;2023-06-19T07:12:17;21.60;99.90
22795;DHT22;11564;50.920;11.612;2023-06-19T07:14:43;21.60;99.90
22795;DHT22;11564;50.920;11.612;2023-06-19T07:17:08;21.30;99.90
22795;DHT22;11564;50.920;11.612;2023-06-19T07:19:34;21.10;99.90
22795;DHT22;11564;50.920;11.612;2023-06-19T07:22:00;20.90;99.90
22795;DHT22;11564;50.920;11.612;2023-06-19T07:24:25;21.10;99.90
22795;DHT22;11564;50.920;11.612;2023-06-19T07:26:51;21.50;99.90
22795;DHT22;11564;50.920;11.612;2023-06-19T07:29:17;21.90;99.90
22795;DHT22;11564;50.920;11.612;2023-06-19T07:31:42;22.10;99.90
22795;DHT22;11564;50.920;11.612;2023-06-19T07:34:08;22.30;99.90
22795;DHT22;11564;50.920;11.612;2023-06-19T07:36:34;22.50;99.90
22795;DHT22;11564;50.920;11.612;2023-06-19T07:38:59;22.50;99.90
22795;DHT22;11564;50.920;11.612;2023-06-19T07:41:25;22.50;99.90
22795;DHT22;11564;50.920;11.612;2023-06-19T07:43:50;22.50;99.90
22795;DHT22;11564;50.920;11.612;2023-06-19T07:46:16;22.60;99.90
22795;DHT22;11564;50.920;11.612;2023-06-19T07:48:42;22.60;99.90
22795;DHT22;11564;50.920;11.612;2023-06-19T07:51:08;22.50;99.90
22795;DHT22;11564;50.920;11.612;2023-06-19T07:53:33;22.50;99.90
22795;DHT22;11564;50.920;11.612;2023-06-19T07:55:59;22.60;99.90
22795;DHT22;11564;50.920;11.612;2023-06-19T07:58:25;22.60;99.90
22795;DHT22;11564;50.920;11.612;2023-06-19T08:00:50;22.70;99.90
22795;DHT22;11564;50.920;11.612;2023-06-19T08:03:16;22.70;99.50
22795;DHT22;11564;50.920;11.612;2023-06-19T08:05:41;23.00;99.90
22795;DHT22;11564;50.920;11.612;2023-06-19T08:08:07;23.10;98.70
22795;DHT22;11564;50.920;11.612;2023-06-19T08:10:33;23.50;99.90
22795;DHT22;11564;50.920;11.612;2023-06-19T08:12:58;23.60;98.50
22795;DHT22;11564;50.920;11.612;2023-06-19T08:15:24;23.70;99.20
22795;DHT22;11564;50.920;11.612;2023-06-19T08:17:49;23.70;99.90
22795;DHT22;11564;50.920;11.612;2023-06-19T08:20:15;23.50;99.90
22795;DHT22;11564;50.920;11.612;2023-06-19T08:22:41;23.70;99.90
22795;DHT22;11564;50.920;11.612;2023-06-19T08:25:07;24.10;98.10
22795;DHT22;11564;50.920;11.612;2023-06-19T08:27:33;24.20;94.60
22795;DHT22;11564;50.920;11.612;2023-06-19T08:29:58;24.30;92.10
22795;DHT22;11564;50.920;11.612;2023-06-19T08:32:24;24.50;92.50
22795;DHT22;11564;50.920;11.612;2023-06-19T08:34:50;24.70;88.30
22795;DHT22;11564;50.920;11.612;2023-06-19T08:37:20;24.80;87.60
22795;DHT22;11564;50.920;11.612;2023-06-19T08:39:45;24.90;87.70
22795;DHT22;11564;50.920;11.612;2023-06-19T08:42:11;24.80;85.20
22795;DHT22;11564;50.920;11.612;2023-06-19T08:44:37;25.10;85.80
22795;DHT22;11564;50.920;11.612;2023-06-19T08:47:03;25.50;85.10
22795;DHT22;11564;50.920;11.612;2023-06-19T08:49:30;25.40;81.70
22795;DHT22;11564;50.920;11.612;2023-06-19T08:51:56;25.80;81.60
22795;DHT22;11564;50.920;11.612;2023-06-19T08:54:22;26.40;80.90
22795;DHT22;11564;50.920;11.612;2023-06-19T08:56:48;26.70;79.60
22795;DHT22;11564;50.920;11.612;2023-06-19T08:59:18;27.10;80.80
22795;DHT22;11564;50.920;11.612;2023-06-19T09:01:48;27.20;78.30
22795;DHT22;11564;50.920;11.612;2023-06-19T09:04:25;27.40;77.20
22795;DHT22;11564;50.920;11.612;2023-06-19T09:06:54;27.20;76.60
22795;DHT22;11564;50.920;11.612;2023-06-19T09:09:22;27.40;77.00
22795;DHT22;11564;50.920;11.612;2023-06-19T09:14:35;26.90;74.50
22795;DHT22;11564;50.920;11.612;2023-06-19T09:17:02;26.60;76.40
22795;DHT22;11564;50.920;11.612;2023-06-19T09:19:29;26.60;76.70
22795;DHT22;11564;50.920;11.612;2023-06-19T09:22:06;26.50;77.20
22795;DHT22;11564;50.920;11.612;2023-06-19T09:24:37;26.50;76.50
22795;DHT22;11564;50.920;11.612;2023-06-19T09:27:10;26.70;76.70
22795;DHT22;11564;50.920;11.612;2023-06-19T09:29:39;26.60;74.70
22795;DHT22;11564;50.920;11.612;2023-06-19T09:32:27;26.70;74.00
22795;DHT22;11564;50.920;11.612;2023-06-19T09:34:55;26.60;74.50
22795;DHT22;11564;50.920;11.612;2023-06-19T09:37:25;26.80;72.90
22795;DHT22;11564;50.920;11.612;2023-06-19T09:39:54;26.40;71.50
22795;DHT22;11564;50.920;11.612;2023-06-19T09:42:29;26.40;73.80
22795;DHT22;11564;50.920;11.612;2023-06-19T09:45:02;26.30;72.70
22795;DHT22;11564;50.920;11.612;2023-06-19T09:47:36;26.50;72.50
22795;DHT22;11564;50.920;11.612;2023-06-19T09:50:03;26.60;73.20
22795;DHT22;11564;50.920;11.612;2023-06-19T09:52:29;26.60;71.80
22795;DHT22;11564;50.920;11.612;2023-06-19T09:54:56;26.70;73.30
22795;DHT22;11564;50.920;11.612;2023-06-19T09:57:23;26.90;72.70
22795;DHT22;11564;50.920;11.612;2023-06-19T09:59:55;27.10;73.60
22795;DHT22;11564;50.920;11.612;2023-06-19T10:02:22;27.10;72.50
22795;DHT22;11564;50.920;11.612;2023-06-19T10:04:55;27.30;73.40
22795;DHT22;11564;50.920;11.612;2023-06-19T10:07:24;27.40;70.80
22795;DHT22;11564;50.920;11.612;2023-06-19T10:12:35;28.10;69.40
22795;DHT22;11564;50.920;11.612;2023-06-19T10:17:34;28.20;66.90
22795;DHT22;11564;50.920;11.612;2023-06-19T10:20:00;27.80;68.40
22795;DHT22;11564;50.920;11.612;2023-06-19T10:22:30;28.10;67.30
22795;DHT22;11564;50.920;11.612;2023-06-19T10:24:56;28.20;67.20
22795;DHT22;11564;50.920;11.612;2023-06-19T10:27:23;28.30;67.60
22795;DHT22;11564;50.920;11.612;2023-06-19T10:29:55;28.20;66.70
22795;DHT22;11564;50.920;11.612;2023-06-19T10:32:23;27.80;66.30
22795;DHT22;11564;50.920;11.612;2023-06-19T10:34:49;27.90;67.00
22795;DHT22;11564;50.920;11.612;2023-06-19T10:37:17;28.00;67.80
22795;DHT22;11564;50.920;11.612;2023-06-19T10:39:43;28.40;67.00
22795;DHT22;11564;50.920;11.612;2023-06-19T10:42:10;28.20;66.90
22795;DHT22;11564;50.920;11.612;2023-06-19T10:44:36;28.40;67.00
22795;DHT22;11564;50.920;11.612;2023-06-19T10:47:05;28.50;66.00
22795;DHT22;11564;50.920;11.612;2023-06-19T10:49:32;28.60;66.60
22795;DHT22;11564;50.920;11.612;2023-06-19T10:52:00;28.30;65.20
22795;DHT22;11564;50.920;11.612;2023-06-19T10:54:27;28.50;65.30
22795;DHT22;11564;50.920;11.612;2023-06-19T10:56:53;28.70;65.70
22795;DHT22;11564;50.920;11.612;2023-06-19T10:59:19;28.40;67.00
22795;DHT22;11564;50.920;11.612;2023-06-19T11:01:48;28.40;67.20
22795;DHT22;11564;50.920;11.612;2023-06-19T11:04:16;28.20;68.20
22795;DHT22;11564;50.920;11.612;2023-06-19T11:06:43;28.10;68.40
22795;DHT22;11564;50.920;11.612;2023-06-19T11:09:10;28.20;67.60
22795;DHT22;11564;50.920;11.612;2023-06-19T11:11:44;28.40;67.70
22795;DHT22;11564;50.920;11.612;2023-06-19T11:14:11;28.60;67.70
22795;DHT22;11564;50.920;11.612;2023-06-19T11:16:45;29.20;67.00
22795;DHT22;11564;50.920;11.612;2023-06-19T11:19:19;28.90;66.40
22795;DHT22;11564;50.920;11.612;2023-06-19T11:21:47;29.10;67.80
22795;DHT22;11564;50.920;11.612;2023-06-19T11:24:14;28.70;66.40
22795;DHT22;11564;50.920;11.612;2023-06-19T11:26:45;28.80;66.70
22795;DHT22;11564;50.920;11.612;2023-06-19T11:29:20;28.80;66.20
22795;DHT22;11564;50.920;11.612;2023-06-19T11:31:47;29.10;66.00
22795;DHT22;11564;50.920;11.612;2023-06-19T11:34:13;29.80;64.90
22795;DHT22;11564;50.920;11.612;2023-06-19T11:36:40;30.30;64.60
22795;DHT22;11564;50.920;11.612;2023-06-19T11:39:11;30.20;64.70
22795;DHT22;11564;50.920;11.612;2023-06-19T11:41:37;29.90;65.40
22795;DHT22;11564;50.920;11.612;2023-06-19T11:44:05;30.20;66.40
22795;DHT22;11564;50.920;11.612;2023-06-19T11:46:31;30.70;64.90
22795;DHT22;11564;50.920;11.612;2023-06-19T11:51:33;31.10;63.90
22795;DHT22;11564;50.920;11.612;2023-06-19T11:53:59;31.10;63.40
22795;DHT22;11564;50.920;11.612;2023-06-19T11:56:24;30.80;63.40
22795;DHT22;11564;50.920;11.612;2023-06-19T11:58:50;30.60;62.30
22795;DHT22;11564;50.920;11.612;2023-06-19T12:01:15;30.30;62.80
22795;DHT22;11564;50.920;11.612;2023-06-19T12:03:41;30.70;64.70
22795;DHT22;11564;50.920;11.612;2023-06-19T12:06:07;31.20;63.80
22795;DHT22;11564;50.920;11.612;2023-06-19T12:08:32;31.60;61.90
22795;DHT22;11564;50.920;11.612;2023-06-19T12:10:58;31.80;60.60
22795;DHT22;11564;50.920;11.612;2023-06-19T12:13:24;32.20;60.70
22795;DHT22;11564;50.920;11.612;2023-06-19T12:15:50;33.00;61.90
22795;DHT22;11564;50.920;11.612;2023-06-19T12:18:15;32.80;59.80
22795;DHT22;11564;50.920;11.612;2023-06-19T12:20:41;32.40;60.00
22795;DHT22;11564;50.920;11.612;2023-06-19T12:23:06;32.50;59.10
22795;DHT22;11564;50.920;11.612;2023-06-19T12:25:32;33.00;60.10
22795;DHT22;11564;50.920;11.612;2023-06-19T12:27:58;33.80;60.30
22795;DHT22;11564;50.920;11.612;2023-06-19T12:30:23;32.80;58.60
22795;DHT22;11564;50.920;11.612;2023-06-19T12:32:50;32.90;59.30
22795;DHT22;11564;50.920;11.612;2023-06-19T12:35:16;33.60;58.00
22795;DHT22;11564;50.920;11.612;2023-06-19T12:37:42;33.30;57.20
22795;DHT22;11564;50.920;11.612;2023-06-19T12:40:08;33.10;57.70
22795;DHT22;11564;50.920;11.612;2023-06-19T12:42:36;33.40;57.50
22795;DHT22;11564;50.920;11.612;2023-06-19T12:45:03;34.00;58.00
22795;DHT22;11564;50.920;11.612;2023-06-19T12:47:29;35.00;57.10
22795;DHT22;11564;50.920;11.612;2023-06-19T12:49:54;35.60;54.50
22795;DHT22;11564;50.920;11.612;2023-06-19T12:52:20;34.00;55.50
22795;DHT22;11564;50.920;11.612;2023-06-19T12:54:45;33.60;56.30
22795;DHT22;11564;50.920;11.612;2023-06-19T12:57:11;33.80;55.10
22795;DHT22;11564;50.920;11.612;2023-06-19T12:59:37;34.20;54.70
22795;DHT22;11564;50.920;11.612;2023-06-19T13:02:02;33.50;55.30
22795;DHT22;11564;50.920;11.612;2023-06-19T13:04:28;32.70;56.70
22795;DHT22;11564;50.920;11.612;2023-06-19T13:06:54;32.60;57.30
22795;DHT22;11564;50.920;11.612;2023-06-19T13:09:19;32.80;58.60
22795;DHT22;11564;50.920;11.612;2023-06-19T13:11:45;32.80;59.70
22795;DHT22;11564;50.920;11.612;2023-06-19T13:14:11;32.80;58.20
22795;DHT22;11564;50.920;11.612;2023-06-19T13:16:36;32.70;58.30
22795;DHT22;11564;50.920;11.612;2023-06-19T13:19:02;32.40;59.20
22795;DHT22;11564;50.920;11.612;2023-06-19T13:21:27;32.00;59.30
22795;DHT22;11564;50.920;11.612;2023-06-19T13:23:53;32.10;60.30
22795;DHT22;11564;50.920;11.612;2023-06-19T13:26:19;32.20;59.20
22795;DHT22;11564;50.920;11.612;2023-06-19T13:28:44;31.40;61.70
22795;DHT22;11564;50.920;11.612;2023-06-19T13:31:10;30.60;65.80
22795;DHT22;11564;50.920;11.612;2023-06-19T13:33:36;30.10;64.80
22795;DHT22;11564;50.920;11.612;2023-06-19T13:36:01;30.00;66.90
22795;DHT22;11564;50.920;11.612;2023-06-19T13:38:27;30.40;66.70
22795;DHT22;11564;50.920;11.612;2023-06-19T13:40:52;31.60;66.20
22795;DHT22;11564;50.920;11.612;2023-06-19T13:43:18;32.90;63.30
22795;DHT22;11564;50.920;11.612;2023-06-19T13:45:45;33.40;60.80
22795;DHT22;11564;50.920;11.612;2023-06-19T13:48:11;32.30;64.00
22795;DHT22;11564;50.920;11.612;2023-06-19T13:50:36;31.80;66.00
22795;DHT22;11564;50.920;11.612;2023-06-19T13:53:02;30.90;67.40
22795;DHT22;11564;50.920;11.612;2023-06-19T13:55:28;30.00;69.10
22795;DHT22;11564;50.920;11.612;2023-06-19T13:57:53;29.50;70.40
22795;DHT22;11564;50.920;11.612;2023-06-19T14:00:19;29.50;70.40
22795;DHT22;11564;50.920;11.612;2023-06-19T14:02:45;29.50;71.30
22795;DHT22;11564;50.920;11.612;2023-06-19T14:05:11;29.80;71.60
22795;DHT22;11564;50.920;11.612;2023-06-19T14:07:40;31.00;69.90
22795;DHT22;11564;50.920;11.612;2023-06-19T14:10:06;32.20;67.20
22795;DHT22;11564;50.920;11.612;2023-06-19T14:12:32;34.80;64.20
22795;DHT22;11564;50.920;11.612;2023-06-19T14:14:58;37.90;60.40
22795;DHT22;11564;50.920;11.612;2023-06-19T14:17:23;40.30;55.40
22795;DHT22;11564;50.920;11.612;2023-06-19T14:19:49;40.90;52.90
22795;DHT22;11564;50.920;11.612;2023-06-19T14:22:16;41.80;52.50
22795;DHT22;11564;50.920;11.612;2023-06-19T14:24:42;42.60;51.40
22795;DHT22;11564;50.920;11.612;2023-06-19T14:27:08;43.00;48.00
22795;DHT22;11564;50.920;11.612;2023-06-19T14:29:33;42.50;46.60
22795;DHT22;11564;50.920;11.612;2023-06-19T14:31:59;41.30;47.50
22795;DHT22;11564;50.920;11.612;2023-06-19T14:34:24;39.80;50.50
22795;DHT22;11564;50.920;11.612;2023-06-19T14:36:50;41.00;48.80
22795;DHT22;11564;50.920;11.612;2023-06-19T14:39:17;42.00;49.60
22795;DHT22;11564;50.920;11.612;2023-06-19T14:41:42;42.30;48.60
22795;DHT22;11564;50.920;11.612;2023-06-19T14:44:08;42.40;46.40
22795;DHT22;11564;50.920;11.612;2023-06-19T14:46:34;42.10;46.90
22795;DHT22;11564;50.920;11.612;2023-06-19T14:49:11;42.10;48.20
22795;DHT22;11564;50.920;11.612;2023-06-19T14:51:41;41.90;47.60
22795;DHT22;11564;50.920;11.612;2023-06-19T14:54:07;41.10;48.70
22795;DHT22;11564;50.920;11.612;2023-06-19T14:56:32;40.10;48.70
22795;DHT22;11564;50.920;11.612;2023-06-19T14:58:58;39.70;49.20
22795;DHT22;11564;50.920;11.612;2023-06-19T15:01:24;39.40;50.60
22795;DHT22;11564;50.920;11.612;2023-06-19T15:03:50;37.90;52.00
22795;DHT22;11564;50.920;11.612;2023-06-19T15:06:15;35.50;54.90
22795;DHT22;11564;50.920;11.612;2023-06-19T15:08:41;34.90;57.40
22795;DHT22;11564;50.920;11.612;2023-06-19T15:11:07;34.50;58.40
22795;DHT22;11564;50.920;11.612;2023-06-19T15:13:33;34.20;58.50
22795;DHT22;11564;50.920;11.612;2023-06-19T15:15:58;33.90;59.90
22795;DHT22;11564;50.920;11.612;2023-06-19T15:18:25;34.10;60.00
22795;DHT22;11564;50.920;11.612;2023-06-19T15:20:51;35.00;59.30
22795;DHT22;11564;50.920;11.612;2023-06-19T15:23:17;36.20;56.90